createdAt,value
2023-04-22T00:02:33.889Z,8.10
2023-04-22T00:05:01.478Z,8.10
2023-04-22T00:24:38.670Z,7.90
2023-04-22T00:39:21.453Z,7.80
2023-04-22T00:44:15.385Z,7.80
2023-04-22T00:46:43.282Z,7.80
2023-04-22T00:56:33.803Z,7.80
2023-04-22T01:06:23.543Z,7.70
2023-04-22T01:08:50.276Z,7.70
2023-04-22T01:13:44.211Z,7.70
2023-04-22T01:16:10.973Z,7.70
2023-04-22T01:25:59.741Z,7.70
2023-04-22T01:28:26.707Z,7.70
2023-04-22T01:30:53.500Z,7.70
2023-04-22T01:43:08.815Z,7.70
2023-04-22T01:48:04.060Z,7.70
2023-04-22T01:57:52.544Z,7.60
2023-04-22T02:02:46.508Z,7.60
2023-04-22T02:05:13.600Z,4.40
2023-04-22T02:07:40.458Z,7.60
2023-04-22T02:10:07.772Z,7.60
2023-04-22T02:15:01.583Z,7.50
2023-04-22T02:19:55.698Z,7.50
2023-04-22T02:22:23.285Z,7.50
2023-04-22T02:24:50.107Z,7.50
2023-04-22T02:29:43.888Z,7.40
2023-04-22T02:34:38.090Z,7.40
2023-04-22T02:37:05.572Z,7.40
2023-04-22T02:39:32.373Z,7.30
2023-04-22T02:41:59.021Z,7.30
2023-04-22T02:44:25.781Z,7.30
2023-04-22T02:46:52.557Z,7.30
2023-04-22T02:56:40.748Z,7.20
2023-04-22T02:59:07.394Z,7.20
2023-04-22T03:01:34.221Z,7.20
2023-04-22T03:04:01.130Z,7.20
2023-04-22T03:06:28.022Z,7.10
2023-04-22T03:08:54.710Z,7.20
2023-04-22T03:11:21.504Z,7.10
2023-04-22T03:16:17.151Z,7.00
2023-04-22T03:18:43.820Z,7.00
2023-04-22T03:21:10.532Z,6.90
2023-04-22T03:23:37.251Z,6.90
2023-04-22T03:26:03.926Z,6.80
2023-04-22T03:28:30.558Z,6.70
2023-04-22T03:30:57.296Z,6.70
2023-04-22T03:33:23.914Z,6.60
2023-04-22T03:35:51.081Z,6.70
2023-04-22T03:40:44.915Z,6.70
2023-04-22T03:45:38.821Z,6.50
2023-04-22T03:48:05.849Z,6.50
2023-04-22T03:50:33.047Z,6.40
2023-04-22T03:52:59.852Z,6.50
2023-04-22T03:55:26.500Z,6.40
2023-04-22T03:57:53.171Z,6.30
2023-04-22T04:00:19.828Z,6.30
2023-04-22T04:02:46.807Z,6.30
2023-04-22T04:05:13.879Z,6.20
2023-04-22T04:07:41.022Z,6.20
2023-04-22T04:10:08.240Z,6.20
2023-04-22T04:12:35.026Z,6.20
2023-04-22T04:15:01.846Z,6.20
2023-04-22T04:17:28.947Z,6.10
2023-04-22T04:22:22.901Z,6.30
2023-04-22T04:27:17.120Z,6.30
2023-04-22T04:29:44.577Z,6.30
2023-04-22T04:34:38.366Z,6.40
2023-04-22T04:39:32.960Z,6.70
2023-04-22T04:49:22.016Z,7.70
2023-04-22T04:51:49.144Z,7.90
2023-04-22T04:59:10.567Z,8.30
2023-04-22T05:04:04.650Z,8.80
2023-04-22T05:08:59.703Z,8.90
2023-04-22T05:16:21.001Z,9.30
2023-04-22T05:18:47.766Z,9.60
2023-04-22T05:21:16.001Z,9.60
2023-04-22T05:28:37.327Z,9.60
2023-04-22T05:31:04.094Z,9.60
2023-04-22T05:33:31.254Z,9.80
2023-04-22T05:35:57.974Z,9.90
2023-04-22T05:38:24.775Z,9.80
2023-04-22T05:43:18.881Z,10.20
2023-04-22T05:45:45.758Z,10.40
2023-04-22T05:48:12.474Z,10.50
2023-04-22T05:55:35.441Z,10.50
2023-04-22T05:58:02.098Z,10.80
2023-04-22T06:00:28.812Z,10.90
2023-04-22T06:02:55.655Z,11.00
2023-04-22T06:05:22.498Z,11.20
2023-04-22T06:07:49.170Z,11.20
2023-04-22T06:10:15.825Z,11.70
2023-04-22T06:12:42.452Z,12.10
2023-04-22T06:17:36.510Z,12.30
2023-04-22T06:22:30.410Z,12.20
2023-04-22T06:27:24.075Z,12.10
2023-04-22T06:29:50.733Z,11.50
2023-04-22T06:32:17.371Z,12.00
2023-04-22T06:34:44.001Z,12.00
2023-04-22T06:37:10.690Z,12.20
2023-04-22T06:42:04.798Z,12.10
2023-04-22T06:46:58.924Z,12.50
2023-04-22T06:49:25.717Z,12.50
2023-04-22T06:51:52.326Z,12.40
2023-04-22T06:56:46.039Z,12.90
2023-04-22T06:59:12.704Z,12.70
2023-04-22T07:01:39.324Z,12.70
2023-04-22T07:06:33.085Z,13.20
2023-04-22T07:08:59.954Z,13.30
2023-04-22T07:11:27.632Z,13.50
2023-04-22T07:13:54.324Z,13.70
2023-04-22T07:16:21.081Z,13.70
2023-04-22T07:18:47.774Z,13.50
2023-04-22T07:21:14.387Z,14.20
2023-04-22T07:23:41.092Z,14.50
2023-04-22T07:26:07.718Z,14.40
2023-04-22T07:28:34.371Z,14.80
2023-04-22T07:31:01.756Z,14.70
2023-04-22T07:33:28.369Z,14.60
2023-04-22T07:35:55.032Z,15.00
2023-04-22T07:48:10.097Z,16.10
2023-04-22T07:50:38.708Z,16.10
2023-04-22T07:53:06.142Z,16.30
2023-04-22T07:55:32.886Z,16.20
2023-04-22T07:58:01.054Z,16.30
2023-04-22T08:00:27.802Z,16.30
2023-04-22T08:02:54.572Z,16.50
2023-04-22T08:05:21.400Z,16.30
2023-04-22T08:07:48.208Z,16.40
2023-04-22T08:10:14.903Z,16.60
2023-04-22T08:12:41.554Z,16.70
2023-04-22T08:15:08.516Z,17.50
2023-04-22T08:17:35.271Z,16.90
2023-04-22T08:20:02.064Z,17.10
2023-04-22T08:22:28.726Z,17.10
2023-04-22T08:24:55.407Z,17.20
2023-04-22T08:27:22.353Z,17.40
2023-04-22T08:29:48.999Z,17.40
2023-04-22T08:34:43.914Z,17.20
2023-04-22T08:39:38.126Z,17.60
2023-04-22T08:42:05.458Z,17.80
2023-04-22T08:44:32.085Z,17.50
2023-04-22T08:46:59.977Z,17.10
2023-04-22T08:49:28.100Z,17.40
2023-04-22T08:54:23.611Z,17.90
2023-04-22T08:56:50.675Z,17.90
2023-04-22T08:59:17.387Z,18.50
2023-04-22T09:04:11.774Z,18.60
2023-04-22T09:06:40.233Z,18.80
2023-04-22T09:09:08.953Z,18.50
2023-04-22T09:11:36.396Z,18.80
2023-04-22T09:14:06.640Z,19.30
2023-04-22T09:16:33.765Z,19.10
2023-04-22T09:21:28.795Z,18.60
2023-04-22T09:23:56.345Z,18.90
2023-04-22T09:26:24.360Z,19.00
2023-04-22T09:28:55.237Z,19.00
2023-04-22T09:31:21.993Z,19.00
2023-04-22T09:33:50.385Z,19.20
2023-04-22T09:36:17.076Z,19.30
2023-04-22T09:38:52.985Z,19.60
2023-04-22T09:41:26.120Z,20.40
2023-04-22T09:43:52.786Z,19.90
2023-04-22T09:51:17.679Z,19.80
2023-04-22T09:53:44.363Z,19.80
2023-04-22T09:56:11.372Z,20.10
2023-04-22T09:58:41.133Z,20.00
2023-04-22T10:01:08.300Z,20.00
2023-04-22T10:06:02.280Z,19.70
2023-04-22T10:10:55.982Z,20.10
2023-04-22T10:13:22.733Z,20.10
2023-04-22T10:15:53.061Z,19.70
2023-04-22T10:18:25.765Z,20.40
2023-04-22T10:20:53.326Z,19.70
2023-04-22T10:23:21.566Z,19.70
2023-04-22T10:25:49.274Z,19.60
2023-04-22T10:28:16.418Z,19.60
2023-04-22T10:33:27.402Z,19.60
2023-04-22T10:36:15.797Z,19.90
2023-04-22T10:39:02.797Z,20.40
2023-04-22T10:41:30.960Z,20.40
2023-04-22T10:44:01.103Z,20.80
2023-04-22T10:46:32.063Z,20.90
2023-04-22T10:49:11.655Z,20.60
2023-04-22T10:51:42.319Z,20.60
2023-04-22T10:54:31.781Z,20.60
2023-04-22T10:57:05.092Z,20.40
2023-04-22T10:59:32.808Z,20.70
2023-04-22T11:02:06.655Z,20.70
2023-04-22T11:07:15.046Z,20.70
2023-04-22T11:09:43.108Z,22.40
2023-04-22T11:12:34.752Z,20.80
2023-04-22T11:15:17.781Z,21.40
2023-04-22T11:17:46.149Z,21.60
2023-04-22T11:22:42.396Z,21.50
2023-04-22T11:27:39.709Z,21.30
2023-04-22T11:30:08.037Z,21.20
2023-04-22T11:32:35.478Z,21.00
2023-04-22T11:35:07.240Z,21.10
2023-04-22T11:37:40.763Z,21.00
2023-04-22T11:40:27.310Z,21.20
2023-04-22T11:47:51.181Z,20.90
2023-04-22T11:52:47.326Z,21.30
2023-04-22T11:55:27.487Z,21.20
2023-04-22T11:58:01.826Z,21.30
2023-04-22T12:00:33.288Z,21.50
2023-04-22T12:03:01.487Z,25.30
2023-04-22T12:05:38.344Z,21.60
2023-04-22T12:08:16.139Z,21.50
2023-04-22T12:10:44.693Z,21.50
2023-04-22T12:13:18.842Z,21.40
2023-04-22T12:15:45.499Z,21.30
2023-04-22T12:18:12.802Z,22.00
2023-04-22T12:20:40.586Z,21.20
2023-04-22T12:23:13.447Z,21.50
2023-04-22T12:28:07.431Z,21.70
2023-04-22T12:33:01.222Z,21.60
2023-04-22T12:35:27.855Z,21.50
2023-04-22T12:40:21.644Z,21.90
2023-04-22T12:42:48.253Z,21.80
2023-04-22T12:45:16.157Z,22.90
2023-04-22T12:50:10.002Z,22.10
2023-04-22T12:52:36.750Z,22.50
2023-04-22T12:57:31.617Z,22.40
2023-04-22T12:59:58.381Z,22.30
2023-04-22T13:02:25.509Z,22.40
2023-04-22T13:09:47.004Z,22.90
2023-04-22T13:14:40.827Z,22.60
2023-04-22T13:17:07.499Z,22.70
2023-04-22T13:19:35.226Z,22.40
2023-04-22T13:22:02.495Z,22.60
2023-04-22T13:24:29.213Z,22.60
2023-04-22T13:26:56.184Z,22.80
2023-04-22T13:29:23.040Z,22.60
2023-04-22T13:34:17.302Z,22.70
2023-04-22T13:36:43.925Z,22.90
2023-04-22T13:39:10.770Z,23.30
2023-04-22T13:44:04.719Z,22.60
2023-04-22T13:46:31.373Z,22.90
2023-04-22T13:48:58.645Z,22.90
2023-04-22T13:51:25.368Z,23.10
2023-04-22T13:53:52.028Z,22.80
2023-04-22T14:01:13.246Z,22.60
2023-04-22T14:03:40.179Z,22.50
2023-04-22T14:06:07.105Z,20.50
2023-04-22T14:08:33.814Z,22.80
2023-04-22T14:13:29.908Z,23.00
2023-04-22T14:15:56.701Z,22.80
2023-04-22T14:18:23.523Z,22.90
2023-04-22T14:23:18.297Z,22.60
2023-04-22T14:25:46.133Z,22.70
2023-04-22T14:28:13.704Z,22.80
2023-04-22T14:33:08.168Z,22.80
2023-04-22T14:35:35.371Z,22.80
2023-04-22T14:38:02.925Z,22.80
2023-04-22T14:42:57.638Z,23.30
2023-04-22T14:45:24.715Z,24.10
2023-04-22T14:47:51.656Z,23.30
2023-04-22T14:50:18.361Z,23.60
2023-04-22T14:52:45.010Z,23.10
2023-04-22T14:55:22.002Z,22.90
2023-04-22T14:57:50.493Z,22.70
2023-04-22T15:02:44.748Z,22.70
2023-04-22T15:05:11.551Z,22.60
2023-04-22T15:14:59.663Z,22.50
2023-04-22T15:17:27.338Z,22.60
2023-04-22T15:19:57.557Z,22.40
2023-04-22T15:22:25.089Z,22.40
2023-04-22T15:27:19.054Z,22.30
2023-04-22T15:29:46.485Z,22.20
2023-04-22T15:32:13.212Z,25.20
2023-04-22T15:34:39.855Z,23.60
2023-04-22T15:37:06.500Z,22.10
2023-04-22T15:39:33.213Z,22.00
2023-04-22T15:41:59.877Z,21.80
2023-04-22T15:44:28.062Z,21.90
2023-04-22T15:46:55.053Z,21.60
2023-04-22T15:49:21.763Z,22.20
2023-04-22T15:51:48.413Z,21.70
2023-04-22T15:54:15.055Z,18.70
2023-04-22T15:56:41.737Z,21.80
2023-04-22T16:01:35.674Z,21.70
2023-04-22T16:04:02.668Z,21.70
2023-04-22T16:08:56.748Z,21.60
2023-04-22T16:11:23.369Z,22.60
2023-04-22T16:13:50.059Z,21.40
2023-04-22T16:16:16.792Z,21.40
2023-04-22T16:18:44.380Z,21.40
2023-04-22T16:21:11.220Z,22.90
2023-04-22T16:23:37.925Z,21.40
2023-04-22T16:26:05.735Z,21.30
2023-04-22T16:28:32.488Z,21.30
2023-04-22T16:30:59.227Z,21.30
2023-04-22T16:33:25.890Z,21.30
2023-04-22T16:38:19.619Z,21.50
2023-04-22T16:40:46.342Z,21.70
2023-04-22T16:43:13.186Z,22.20
2023-04-22T16:48:07.251Z,21.40
2023-04-22T16:50:33.915Z,21.30
2023-04-22T16:53:00.577Z,21.20
2023-04-22T16:55:27.239Z,21.00
2023-04-22T16:57:53.907Z,20.90
2023-04-22T17:00:20.961Z,20.80
2023-04-22T17:02:47.734Z,20.70
2023-04-22T17:05:14.537Z,20.50
2023-04-22T17:07:41.501Z,20.40
2023-04-22T17:10:08.687Z,20.30
2023-04-22T17:12:35.324Z,20.20
2023-04-22T17:15:02.009Z,20.10
2023-04-22T17:17:28.893Z,19.90
2023-04-22T17:19:55.569Z,19.90
2023-04-22T17:22:24.674Z,19.90
2023-04-22T17:24:51.805Z,19.80
2023-04-22T17:27:18.441Z,19.60
2023-04-22T17:32:13.133Z,19.50
2023-04-22T17:34:40.018Z,19.30
2023-04-22T17:37:07.306Z,20.20
2023-04-22T17:39:34.071Z,19.20
2023-04-22T17:42:00.734Z,19.10
2023-04-22T17:44:27.377Z,19.50
2023-04-22T17:46:54.189Z,18.90
2023-04-22T17:49:20.904Z,18.90
2023-04-22T17:51:47.536Z,18.80
2023-04-22T17:54:14.242Z,18.90
2023-04-22T17:59:08.048Z,18.70
2023-04-22T18:01:34.731Z,18.60
2023-04-22T18:04:01.673Z,19.40
2023-04-22T18:06:29.093Z,18.50
2023-04-22T18:08:55.821Z,18.50
2023-04-22T18:11:22.877Z,18.40
2023-04-22T18:13:49.533Z,18.40
2023-04-22T18:16:16.243Z,18.30
2023-04-22T18:18:42.907Z,18.20
2023-04-22T18:21:09.551Z,18.20
2023-04-22T18:23:36.214Z,18.00
2023-04-22T18:28:39.640Z,17.80
2023-04-22T18:31:07.893Z,17.70
2023-04-22T18:33:34.830Z,17.70
2023-04-22T18:36:01.596Z,17.80
2023-04-22T18:38:28.218Z,18.00
2023-04-22T18:45:49.686Z,17.90
2023-04-22T18:48:16.410Z,17.90
2023-04-22T18:50:43.035Z,17.80
2023-04-22T18:55:36.926Z,17.80
2023-04-22T19:00:30.668Z,17.70
2023-04-22T19:02:57.418Z,17.60
2023-04-22T19:05:24.120Z,17.50
2023-04-22T19:07:51.185Z,17.40
2023-04-22T19:12:44.970Z,17.10
2023-04-22T19:15:11.725Z,17.00
2023-04-22T19:17:38.639Z,16.80
2023-04-22T19:22:32.976Z,16.60
2023-04-22T19:24:59.654Z,16.30
2023-04-22T19:27:26.751Z,16.10
2023-04-22T19:32:20.690Z,15.80
2023-04-22T19:34:47.826Z,15.60
2023-04-22T19:37:14.545Z,15.70
2023-04-22T19:39:41.600Z,15.60
2023-04-22T19:42:08.430Z,15.50
2023-04-22T19:44:35.059Z,15.50
2023-04-22T19:47:01.686Z,15.50
2023-04-22T19:49:31.018Z,15.50
2023-04-22T19:51:58.288Z,15.50
2023-04-22T19:54:24.924Z,15.30
2023-04-22T19:56:51.638Z,15.30
2023-04-22T19:59:18.272Z,15.40
2023-04-22T20:01:45.137Z,15.40
2023-04-22T20:04:12.198Z,15.40
2023-04-22T20:06:39.051Z,15.40
2023-04-22T20:09:05.719Z,15.40
2023-04-22T20:11:32.721Z,15.40
2023-04-22T20:13:59.903Z,15.30
2023-04-22T20:16:27.647Z,15.30
2023-04-22T20:18:55.236Z,15.30
2023-04-22T20:21:22.002Z,15.30
2023-04-22T20:26:19.828Z,15.30
2023-04-22T20:28:49.936Z,15.30
2023-04-22T20:31:18.644Z,15.20
2023-04-22T20:33:45.505Z,15.10
2023-04-22T20:38:39.420Z,15.10
2023-04-22T20:41:07.206Z,15.00
2023-04-22T20:43:34.559Z,15.00
2023-04-22T20:46:01.396Z,15.00
2023-04-22T20:48:28.312Z,14.80
2023-04-22T20:50:55.648Z,14.80
2023-04-22T20:55:50.496Z,14.90
2023-04-22T20:58:17.231Z,14.70
2023-04-22T21:00:43.939Z,14.70
2023-04-22T21:03:11.561Z,14.60
2023-04-22T21:05:42.255Z,14.60
2023-04-22T21:08:23.789Z,14.50
2023-04-22T21:10:52.817Z,14.40
2023-04-22T21:13:19.699Z,14.40
2023-04-22T21:16:07.389Z,14.40
2023-04-22T21:18:34.557Z,14.30
2023-04-22T21:21:04.913Z,14.20
2023-04-22T21:26:00.700Z,14.10
2023-04-22T21:28:27.837Z,14.10
2023-04-22T21:33:22.091Z,14.10
2023-04-22T21:35:48.789Z,14.00
2023-04-22T21:38:16.393Z,14.10
2023-04-22T21:40:43.048Z,14.10
2023-04-22T21:43:09.882Z,14.10
2023-04-22T21:45:36.620Z,14.00
2023-04-22T21:48:04.007Z,14.00
2023-04-22T21:52:58.200Z,14.00
2023-04-22T21:55:24.821Z,14.00
2023-04-22T22:00:19.285Z,14.10
2023-04-22T22:02:46.485Z,14.10
2023-04-22T22:05:14.096Z,14.10
2023-04-22T22:07:41.061Z,14.10
2023-04-22T22:10:08.902Z,13.90
2023-04-22T22:12:36.111Z,13.90
2023-04-22T22:15:03.019Z,13.70
2023-04-22T22:17:29.952Z,13.70
2023-04-22T22:19:57.295Z,13.70
2023-04-22T22:22:24.069Z,13.60
2023-04-22T22:27:19.582Z,13.50
2023-04-22T22:32:14.140Z,13.40
2023-04-22T22:37:08.248Z,13.30
2023-04-22T22:39:35.006Z,13.30
2023-04-22T22:42:01.815Z,13.30
2023-04-22T22:49:22.588Z,13.20
2023-04-22T22:51:49.236Z,13.10
2023-04-22T22:59:10.262Z,12.90
2023-04-22T23:01:37.081Z,12.80
2023-04-22T23:06:31.885Z,12.60
2023-04-22T23:08:58.590Z,12.50
2023-04-22T23:13:52.409Z,12.40
2023-04-22T23:21:13.330Z,12.50
2023-04-22T23:23:40.129Z,12.50
2023-04-22T23:26:06.988Z,12.50
2023-04-22T23:28:34.024Z,12.40
2023-04-22T23:31:00.741Z,12.50
2023-04-22T23:33:27.378Z,12.50
2023-04-22T23:35:54.246Z,12.50
2023-04-22T23:38:21.331Z,12.40
2023-04-22T23:40:48.013Z,12.40
2023-04-22T23:43:14.679Z,12.40
2023-04-22T23:45:41.340Z,12.30
2023-04-22T23:50:35.639Z,12.20
2023-04-22T23:53:02.257Z,12.20
2023-04-22T23:57:57.784Z,12.20
